Time;durP1;ratioP1;P1;durP2;ratioP2;P2;SDS_P1;SDS_P2;PMS_P1;PMS_P2;Temp;Humidity;BMP_temperature;BMP_pressure;BME280_temperature;BME280_humidity;BME280_pressure;Samples;Min_cycle;Max_cycle;Signal;HPM_P1;HPM_P2
2022/07/15 00:00:41;;;;;;;9.48;3.63;;;;;;;17.05;64.61;93428.13;2101378;28;20045;-78
2022/07/15 00:01:42;;;;;;;6.32;3.47;;;;;;;17.03;65.63;93430.56;2107869;28;20063;-79
2022/07/15 00:02:43;;;;;;;5.65;3.72;;;;;;;17.05;66.32;93436.25;2102971;28;20035;-79
2022/07/15 00:03:44;;;;;;;5.50;2.88;;;;;;;16.93;64.27;93423.63;2089829;28;20449;-78
2022/07/15 00:04:45;;;;;;;4.20;3.22;;;;;;;16.90;66.44;93429.94;2097013;28;20023;-78
2022/07/15 00:05:46;;;;;;;7.80;3.80;;;;;;;16.75;66.26;93424.34;2104677;28;20030;-78
2022/07/15 00:06:46;;;;;;;5.97;3.67;;;;;;;16.74;66.95;93428.25;2097957;28;20031;-79
2022/07/15 00:07:47;;;;;;;6.72;3.65;;;;;;;16.67;68.00;93425.81;2103400;28;20019;-78
2022/07/15 00:08:48;;;;;;;10.10;4.63;;;;;;;16.65;68.29;93428.22;2111630;28;20042;-78
2022/07/15 00:11:09;;;;;;;5.97;4.03;;;;;;;16.60;68.08;93426.84;2104870;28;20106;-78
2022/07/15 00:12:10;;;;;;;8.07;3.28;;;;;;;16.51;68.27;93426.81;2106265;28;20472;-79
2022/07/15 00:13:11;;;;;;;5.90;3.22;;;;;;;16.54;70.53;93425.16;2102406;28;20024;-78
2022/07/15 00:14:12;;;;;;;8.13;3.40;;;;;;;16.54;69.67;93434.00;2098033;28;20016;-78
2022/07/15 00:15:14;;;;;;;9.05;3.72;;;;;;;16.52;70.41;93422.94;2105537;28;20020;-78
2022/07/15 00:16:15;;;;;;;7.65;3.88;;;;;;;16.34;71.77;93425.56;2112902;28;20645;-79
2022/07/15 00:17:16;;;;;;;6.05;3.55;;;;;;;16.28;72.93;93430.03;2106270;28;20027;-79
2022/07/15 00:18:17;;;;;;;6.30;3.50;;;;;;;16.19;74.66;93430.00;2097525;28;20027;-78
2022/07/15 00:19:19;;;;;;;6.32;3.63;;;;;;;16.10;73.11;93428.75;2081508;28;20386;-78
2022/07/15 00:20:22;;;;;;;4.20;3.47;;;;;;;16.12;72.21;93433.72;2097082;28;20094;-77
2022/07/15 00:21:23;;;;;;;5.43;3.60;;;;;;;16.02;75.08;93434.88;2097674;28;20107;-78
2022/07/15 00:22:23;;;;;;;4.93;3.45;;;;;;;15.94;74.78;93428.25;2089442;28;20029;-78
2022/07/15 00:23:24;;;;;;;6.13;3.55;;;;;;;15.87;75.52;93437.34;2093540;28;20059;-78
2022/07/15 00:24:26;;;;;;;7.55;3.92;;;;;;;15.78;75.48;93440.00;2098112;28;20057;-78
2022/07/15 00:25:27;;;;;;;5.97;3.72;;;;;;;15.70;76.03;93436.06;2102633;28;20017;-78
2022/07/15 00:26:28;;;;;;;4.50;3.30;;;;;;;15.66;77.39;93430.03;2113068;28;20023;-78
2022/07/15 00:27:29;;;;;;;5.93;3.53;;;;;;;15.67;75.98;93437.69;2099990;28;20066;-78
2022/07/15 00:28:30;;;;;;;6.60;3.47;;;;;;;15.57;75.70;93444.91;2094572;28;20126;-77
2022/07/15 00:29:31;;;;;;;5.55;3.40;;;;;;;15.52;76.11;93442.78;2089682;28;20071;-78
2022/07/15 00:30:38;;;;;;;6.28;3.65;;;;;;;15.41;77.67;93449.75;2094501;28;20043;-78
2022/07/15 00:31:39;;;;;;;6.10;3.45;;;;;;;15.42;78.54;93446.63;2101903;28;20063;-78
2022/07/15 00:32:40;;;;;;;6.50;3.80;;;;;;;15.30;79.83;93453.56;2095742;28;20032;-78
2022/07/15 00:33:41;;;;;;;7.75;3.30;;;;;;;15.21;79.75;93444.66;2094988;28;20099;-78
2022/07/15 00:34:42;;;;;;;7.32;3.63;;;;;;;15.11;80.78;93449.22;2103976;28;20040;-78
2022/07/15 00:35:43;;;;;;;6.15;3.70;;;;;;;15.13;80.48;93446.84;2103956;28;20095;-78
2022/07/15 00:36:44;;;;;;;5.63;3.72;;;;;;;15.21;80.36;93436.59;2102855;28;20030;-78
2022/07/15 00:37:46;;;;;;;5.15;3.40;;;;;;;15.25;79.54;93442.59;2105058;28;20400;-78
2022/07/15 00:38:48;;;;;;;7.82;4.15;;;;;;;15.17;81.15;93446.72;2108084;28;20046;-78
2022/07/15 00:39:49;;;;;;;7.43;3.63;;;;;;;15.07;81.41;93446.66;2097743;28;20836;-78
2022/07/15 00:40:50;;;;;;;8.00;4.03;;;;;;;14.99;81.81;93448.06;2105986;28;20039;-78
2022/07/15 00:41:51;;;;;;;5.20;3.30;;;;;;;14.92;82.87;93444.84;2104242;28;20495;-78
2022/07/15 00:42:53;;;;;;;5.43;3.65;;;;;;;14.90;82.43;93448.00;2089523;28;20088;-78
2022/07/15 00:43:54;;;;;;;4.85;3.50;;;;;;;14.84;83.29;93447.81;2094331;28;20106;-78
2022/07/15 00:44:55;;;;;;;7.43;3.53;;;;;;;14.75;84.67;93449.63;2105204;28;20020;-78
2022/07/15 00:45:56;;;;;;;5.63;3.45;;;;;;;14.73;84.42;93441.25;2097685;28;20119;-78
2022/07/15 00:47:00;;;;;;;5.30;3.40;;;;;;;14.69;85.44;93443.31;2106126;28;20090;-78
2022/07/15 00:48:00;;;;;;;6.97;3.10;;;;;;;14.66;85.18;93444.16;2105842;28;20027;-78
2022/07/15 00:49:04;;;;;;;4.55;3.63;;;;;;;14.66;84.93;93442.22;2099644;28;20024;-77
2022/07/15 00:50:05;;;;;;;4.15;3.42;;;;;;;14.63;85.25;93442.34;2104461;28;20020;-78
2022/07/15 00:51:06;;;;;;;6.70;3.60;;;;;;;14.57;86.05;93444.81;2111004;28;20036;-78
2022/07/15 00:52:08;;;;;;;11.88;3.42;;;;;;;14.41;86.58;93443.00;2114268;28;20019;-78
2022/07/15 00:53:21;;;;;;;6.85;3.33;;;;;;;14.47;86.58;93443.19;2104987;28;20403;-78
2022/07/15 00:54:25;;;;;;;6.80;3.65;;;;;;;14.55;86.15;93444.50;2107525;28;20035;-78
2022/07/15 00:55:29;;;;;;;6.30;3.60;;;;;;;14.59;86.00;93450.53;2097219;28;20112;-78
2022/07/15 00:56:33;;;;;;;5.82;3.70;;;;;;;14.69;85.07;93449.44;2088036;28;20955;-78
2022/07/15 00:57:37;;;;;;;7.30;3.22;;;;;;;14.68;86.03;93439.88;2091522;28;20036;-78
2022/07/15 00:58:41;;;;;;;6.10;3.65;;;;;;;14.66;85.99;93452.22;2111635;28;20068;-78
2022/07/15 00:59:44;;;;;;;7.88;4.00;;;;;;;14.47;87.13;93443.94;2118705;27;20023;-78
2022/07/15 01:00:48;;;;;;;4.97;3.45;;;;;;;14.47;87.10;93451.28;2109635;28;20384;-78
2022/07/15 01:01:51;;;;;;;6.35;4.10;;;;;;;14.39;88.36;93447.28;2109756;28;20038;-78
2022/07/15 01:02:54;;;;;;;8.52;3.55;;;;;;;14.39;87.55;93445.34;2092669;28;20040;-78
2022/07/15 01:03:55;;;;;;;5.70;3.83;;;;;;;14.26;89.15;93444.59;2104974;28;20369;-77
2022/07/15 01:04:57;;;;;;;8.00;4.15;;;;;;;14.14;89.14;93445.38;2114109;28;20156;-77
2022/07/15 01:05:58;;;;;;;6.38;3.70;;;;;;;14.19;90.42;93445.59;2105656;28;20066;-78
2022/07/15 01:06:59;;;;;;;7.05;3.53;;;;;;;14.22;89.52;93447.41;2106164;28;20020;-78
2022/07/15 01:08:00;;;;;;;6.90;3.90;;;;;;;14.20;89.01;93443.66;2114859;27;20823;-78
2022/07/15 01:09:01;;;;;;;6.32;3.45;;;;;;;14.13;89.72;93443.84;2105923;28;20107;-78
2022/07/15 01:10:03;;;;;;;4.90;3.60;;;;;;;13.90;91.01;93442.97;2097625;28;20519;-78
2022/07/15 01:11:04;;;;;;;8.55;4.85;;;;;;;13.91;91.71;93439.09;2105089;28;20484;-78
2022/07/15 01:12:06;;;;;;;10.27;4.47;;;;;;;13.99;91.47;93445.03;2097520;28;20036;-78
2022/07/15 01:13:07;;;;;;;6.68;4.13;;;;;;;13.91;92.23;93444.47;2092467;28;20484;-78
2022/07/15 01:14:08;;;;;;;8.00;4.25;;;;;;;13.98;90.87;93441.59;2102855;28;20028;-78
2022/07/15 01:15:10;;;;;;;7.25;3.90;;;;;;;13.94;91.45;93442.88;2110204;28;20534;-78
2022/07/15 01:16:11;;;;;;;5.90;3.70;;;;;;;14.00;91.13;93441.91;2101970;28;20020;-78
2022/07/15 01:17:12;;;;;;;6.35;3.97;;;;;;;13.95;91.50;93439.00;2099833;28;20032;-78
2022/07/15 01:18:13;;;;;;;6.22;3.83;;;;;;;13.81;92.83;93443.63;2103827;28;20036;-78
2022/07/15 01:19:14;;;;;;;10.02;3.95;;;;;;;13.87;92.09;93446.50;2098284;28;20074;-78
2022/07/15 01:20:16;;;;;;;8.70;4.35;;;;;;;13.87;92.90;93441.13;2099545;28;20823;-78
2022/07/15 01:21:17;;;;;;;5.57;4.18;;;;;;;13.84;92.30;93437.38;2105626;28;20115;-78
2022/07/15 01:22:18;;;;;;;8.15;4.55;;;;;;;13.92;91.81;93442.56;2119738;27;20016;-78
2022/07/15 01:23:19;;;;;;;6.68;4.30;;;;;;;14.00;92.99;93441.16;2108543;28;20019;-77
2022/07/15 01:24:20;;;;;;;4.93;3.80;;;;;;;13.95;93.57;93439.75;2108458;28;20149;-78
2022/07/15 01:25:21;;;;;;;5.65;3.90;;;;;;;14.06;91.61;93436.75;2097426;28;20043;-77
2022/07/15 01:26:22;;;;;;;7.32;4.28;;;;;;;13.95;92.71;93442.44;2094737;28;20500;-78
2022/07/15 01:27:23;;;;;;;9.80;4.10;;;;;;;13.78;92.95;93438.34;2097745;28;20024;-78
2022/07/15 01:28:24;;;;;;;8.05;4.00;;;;;;;13.73;93.48;93442.31;2110283;28;20016;-78
2022/07/15 01:29:25;;;;;;;10.18;5.05;;;;;;;13.81;92.44;93440.19;2103371;28;20024;-78
2022/07/15 01:30:25;;;;;;;6.50;4.20;;;;;;;13.71;93.44;93444.69;2102401;28;20071;-78
2022/07/15 01:31:26;;;;;;;7.05;4.30;;;;;;;13.60;94.34;93436.16;2099383;28;20032;-78
2022/07/15 01:32:28;;;;;;;8.77;3.78;;;;;;;13.51;95.37;93441.41;2103665;28;20055;-79
2022/07/15 01:33:30;;;;;;;8.90;4.45;;;;;;;13.52;95.26;93438.31;2105665;28;20448;-78
2022/07/15 01:34:31;;;;;;;6.65;4.40;;;;;;;13.45;95.90;93443.88;2099151;28;20135;-77
2022/07/15 01:35:31;;;;;;;9.95;4.15;;;;;;;13.34;96.19;93446.06;2097176;28;20606;-78
2022/07/15 01:36:33;;;;;;;9.90;4.00;;;;;;;13.53;94.62;93431.00;2105485;28;20028;-78
2022/07/15 01:37:34;;;;;;;5.50;3.88;;;;;;;13.23;97.21;93438.31;2099080;28;20051;-78
2022/07/15 01:38:35;;;;;;;11.43;4.30;;;;;;;13.37;95.32;93445.22;2100054;28;20368;-79
2022/07/15 01:39:36;;;;;;;7.45;4.18;;;;;;;13.43;96.87;93445.47;2103301;28;20031;-78
2022/07/15 01:40:38;;;;;;;5.07;3.92;;;;;;;13.53;95.57;93441.75;2101745;28;20385;-79
2022/07/15 01:41:39;;;;;;;7.38;4.57;;;;;;;13.44;95.98;93442.38;2105343;28;20503;-78
2022/07/15 01:42:40;;;;;;;7.78;4.18;;;;;;;13.49;95.55;93449.16;2097585;28;20032;-78
2022/07/15 01:43:41;;;;;;;7.72;4.20;;;;;;;13.53;95.27;93445.19;2104541;28;20038;-78
2022/07/15 01:44:42;;;;;;;6.00;4.18;;;;;;;13.56;94.50;93447.03;2107436;27;20054;-78
2022/07/15 01:45:44;;;;;;;5.53;3.88;;;;;;;13.52;94.55;93440.22;2108203;28;20647;-78
2022/07/15 01:46:45;;;;;;;10.23;4.22;;;;;;;13.37;96.95;93447.91;2102410;27;20020;-78
2022/07/15 01:47:48;;;;;;;8.95;4.10;;;;;;;13.28;96.85;93442.41;2111125;28;20026;-78
2022/07/15 01:50:09;;;;;;;5.57;3.85;;;;;;;13.18;97.54;93438.06;2100068;28;20384;-78
2022/07/15 01:51:10;;;;;;;7.60;4.43;;;;;;;13.30;96.32;93440.03;2104594;28;20039;-78
2022/07/15 01:52:12;;;;;;;4.75;3.80;;;;;;;13.35;96.28;93436.88;2111465;28;20027;-78
2022/07/15 01:53:13;;;;;;;8.63;4.28;;;;;;;13.24;97.17;93433.69;2103868;28;20020;-78
2022/07/15 01:54:13;;;;;;;6.57;4.00;;;;;;;13.18;97.94;93440.75;2099737;28;20024;-78
2022/07/15 01:55:14;;;;;;;7.28;4.38;;;;;;;13.16;98.38;93443.84;2094995;28;20044;-78
2022/07/15 01:56:15;;;;;;;8.75;4.22;;;;;;;13.11;98.32;93439.75;2100815;28;20032;-78
2022/07/15 01:57:17;;;;;;;8.95;4.40;;;;;;;13.04;98.40;93445.31;2105227;28;20396;-78
2022/07/15 01:58:18;;;;;;;8.07;4.68;;;;;;;13.03;99.18;93445.72;2100852;28;20028;-78
2022/07/15 01:59:24;;;;;;;7.55;4.30;;;;;;;12.95;99.69;93433.66;2102416;28;20028;-78
2022/07/15 02:00:25;;;;;;;7.72;4.40;;;;;;;12.89;100.00;93449.50;2104805;28;20107;-78
2022/07/15 02:01:26;;;;;;;8.50;4.43;;;;;;;12.98;99.13;93438.19;2091578;28;20032;-78
2022/07/15 02:02:27;;;;;;;8.95;4.18;;;;;;;13.04;99.68;93448.00;2096929;28;20044;-78
2022/07/15 02:03:28;;;;;;;6.35;4.40;;;;;;;12.90;99.68;93442.97;2096300;28;20024;-78
2022/07/15 02:04:29;;;;;;;7.10;4.10;;;;;;;12.97;100.00;93437.44;2081488;28;20021;-80
2022/07/15 02:05:35;;;;;;;13.90;5.00;;;;;;;12.97;99.92;93440.13;2099114;28;20709;-80
2022/07/15 02:06:36;;;;;;;7.60;4.28;;;;;;;12.78;100.00;93451.72;2106994;28;20484;-80
2022/07/15 02:07:38;;;;;;;6.75;4.22;;;;;;;12.84;100.00;93442.72;2098018;28;20016;-81
2022/07/15 02:08:39;;;;;;;6.07;4.00;;;;;;;13.01;98.77;93442.72;2092775;28;20385;-80
2022/07/15 02:09:40;;;;;;;8.15;4.45;;;;;;;12.90;99.70;93444.91;2091944;28;20029;-80
2022/07/15 02:10:41;;;;;;;9.77;4.20;;;;;;;12.90;99.92;93439.53;2096634;28;20044;-80
2022/07/15 02:11:43;;;;;;;6.35;4.15;;;;;;;13.01;99.03;93435.41;2107012;28;20516;-80
2022/07/15 02:14:20;;;;;;;7.38;4.22;;;;;;;13.26;97.98;93436.72;2141809;27;20168;-78
2022/07/15 02:15:21;;;;;;;8.18;4.40;;;;;;;13.26;97.68;93434.03;2126229;27;20045;-79
2022/07/15 02:16:22;;;;;;;8.55;4.55;;;;;;;13.31;97.65;93431.59;2108486;28;20118;-79
2022/07/15 02:17:23;;;;;;;7.15;4.45;;;;;;;13.23;97.76;93440.25;2112070;28;20244;-80
2022/07/15 02:18:24;;;;;;;5.40;3.90;;;;;;;13.26;97.39;93439.41;2118574;27;20015;-79
2022/07/15 02:19:25;;;;;;;8.65;4.40;;;;;;;13.21;98.27;93429.91;2116315;28;20024;-79
2022/07/15 02:20:27;;;;;;;6.18;4.80;;;;;;;13.12;99.05;93437.81;2118440;28;20491;-79
2022/07/15 02:21:28;;;;;;;5.18;4.25;;;;;;;13.16;98.92;93429.66;2122340;27;20046;-79
2022/07/15 02:22:29;;;;;;;6.63;4.55;;;;;;;13.05;99.85;93433.38;2120488;27;20094;-79
2022/07/15 02:23:30;;;;;;;5.32;4.13;;;;;;;13.03;99.52;93427.69;2113229;27;20431;-79
2022/07/15 02:24:31;;;;;;;7.53;4.60;;;;;;;13.09;98.98;93431.38;2129343;27;20015;-79
2022/07/15 02:25:34;;;;;;;6.20;4.13;;;;;;;13.07;100.00;93427.59;2120756;28;20019;-79
2022/07/15 02:26:35;;;;;;;6.10;4.28;;;;;;;13.11;100.00;93420.94;2108613;28;20016;-79
2022/07/15 02:27:36;;;;;;;6.05;4.22;;;;;;;13.14;99.22;93426.66;2111917;27;20019;-79
2022/07/15 02:28:37;;;;;;;7.82;4.30;;;;;;;13.19;97.87;93428.81;2115070;28;20472;-79
2022/07/15 02:29:38;;;;;;;6.32;3.85;;;;;;;13.17;97.64;93428.47;2118680;27;20444;-79
2022/07/15 02:30:41;;;;;;;6.85;4.50;;;;;;;13.25;96.79;93429.84;2112416;28;20020;-79
2022/07/15 02:31:42;;;;;;;7.50;4.00;;;;;;;13.27;96.99;93424.81;2120358;27;20060;-79
2022/07/15 02:32:43;;;;;;;5.75;4.00;;;;;;;13.29;95.89;93425.88;2127099;27;20029;-79
2022/07/15 02:33:44;;;;;;;7.90;4.25;;;;;;;13.32;96.60;93422.34;2104310;28;20396;-79
2022/07/15 02:34:46;;;;;;;5.70;4.68;;;;;;;13.41;95.81;93418.28;2107674;28;20503;-80
2022/07/15 02:35:47;;;;;;;4.78;3.92;;;;;;;13.42;95.88;93420.53;2125004;27;20527;-79
2022/07/15 02:36:48;;;;;;;4.80;3.72;;;;;;;13.47;94.35;93419.25;2131961;27;20026;-79
2022/07/15 02:37:49;;;;;;;4.57;3.80;;;;;;;13.47;94.52;93414.63;2112607;28;20042;-79
2022/07/15 02:38:50;;;;;;;6.10;4.40;;;;;;;13.50;93.69;93418.41;2111651;28;20054;-79
2022/07/15 02:39:51;;;;;;;9.82;4.50;;;;;;;13.56;93.65;93420.16;2111153;28;20629;-79
2022/07/15 02:40:52;;;;;;;4.32;3.92;;;;;;;13.60;97.31;93415.41;2105059;28;20039;-79
2022/07/15 02:41:53;;;;;;;8.25;4.00;;;;;;;13.52;96.34;93419.50;2113743;28;20050;-79
2022/07/15 02:42:56;;;;;;;9.55;4.55;;;;;;;13.55;95.39;93421.31;2117602;28;20024;-79
2022/07/15 02:43:59;;;;;;;6.80;4.45;;;;;;;13.52;94.38;93416.03;2111284;27;20036;-79
2022/07/15 02:45:00;;;;;;;5.13;3.95;;;;;;;13.57;92.57;93423.59;2123486;27;20015;-79
2022/07/15 02:46:01;;;;;;;6.93;4.20;;;;;;;13.54;93.83;93421.75;2120563;28;20415;-79
2022/07/15 02:47:02;;;;;;;5.40;3.90;;;;;;;13.57;95.58;93420.91;2111518;27;20034;-79
2022/07/15 02:48:04;;;;;;;11.15;4.82;;;;;;;13.42;97.37;93422.47;2118475;27;20026;-80
2022/07/15 02:49:05;;;;;;;9.55;4.78;;;;;;;13.32;97.42;93424.28;2112328;28;20027;-79
2022/07/15 02:50:07;;;;;;;8.27;4.28;;;;;;;13.26;96.66;93420.63;2114155;27;20110;-79
2022/07/15 02:51:08;;;;;;;6.55;4.20;;;;;;;13.26;97.34;93423.31;2111007;28;20082;-79
2022/07/15 02:52:09;;;;;;;4.57;4.15;;;;;;;13.28;97.13;93424.38;2103945;28;20035;-79
2022/07/15 02:53:10;;;;;;;6.10;4.28;;;;;;;13.41;95.52;93415.59;2107100;28;20024;-79
2022/07/15 02:54:11;;;;;;;7.18;4.13;;;;;;;13.35;95.19;93418.81;2112216;28;20526;-80
2022/07/15 02:55:13;;;;;;;6.93;3.97;;;;;;;13.33;96.35;93418.47;2103684;28;20028;-80
2022/07/15 02:56:14;;;;;;;7.50;4.05;;;;;;;13.43;94.83;93423.97;2107650;27;20031;-79
2022/07/15 02:57:15;;;;;;;6.53;4.13;;;;;;;13.45;94.94;93424.31;2108183;28;20020;-80
2022/07/15 02:58:16;;;;;;;9.43;3.88;;;;;;;13.49;93.78;93423.03;2111060;28;20020;-79
2022/07/15 02:59:17;;;;;;;5.40;3.70;;;;;;;13.46;94.12;93421.19;2113221;28;20023;-79
2022/07/15 03:00:19;;;;;;;6.53;4.15;;;;;;;13.44;94.35;93425.50;2110539;28;20157;-79
2022/07/15 03:01:20;;;;;;;4.75;4.22;;;;;;;13.41;95.35;93412.91;2112109;28;20036;-79
2022/07/15 03:02:21;;;;;;;6.95;3.97;;;;;;;13.37;97.05;93412.25;2110081;28;20022;-79
2022/07/15 03:03:23;;;;;;;9.15;4.13;;;;;;;13.36;98.91;93416.88;2099908;28;20028;-79
2022/07/15 03:04:24;;;;;;;6.40;3.97;;;;;;;13.20;98.38;93420.34;2104844;28;20042;-80
2022/07/15 03:05:25;;;;;;;6.65;4.60;;;;;;;13.10;100.00;93422.13;2113239;27;20487;-79
2022/07/15 03:06:26;;;;;;;5.63;4.35;;;;;;;13.16;100.00;93422.38;2112156;28;20058;-79
2022/07/15 03:07:30;;;;;;;6.25;4.85;;;;;;;13.08;99.65;93424.50;2110802;28;20027;-79
2022/07/15 03:08:31;;;;;;;7.47;4.20;;;;;;;13.09;97.57;93423.31;2098105;28;20032;-80
2022/07/15 03:09:32;;;;;;;9.55;4.38;;;;;;;13.03;97.51;93425.00;2112378;27;20085;-79
2022/07/15 03:10:33;;;;;;;9.55;3.88;;;;;;;12.94;98.20;93418.72;2110330;28;20012;-79
2022/07/15 03:11:34;;;;;;;10.85;4.65;;;;;;;12.98;98.99;93419.41;2112203;28;20461;-79
2022/07/15 03:12:36;;;;;;;6.15;4.38;;;;;;;12.95;99.71;93420.22;2126511;27;20028;-79
2022/07/15 03:13:37;;;;;;;9.10;4.22;;;;;;;12.95;99.00;93423.69;2138055;27;20026;-79
2022/07/15 03:14:38;;;;;;;7.32;4.07;;;;;;;12.93;98.45;93423.34;2120518;28;20027;-79
2022/07/15 03:15:39;;;;;;;5.63;4.25;;;;;;;12.91;99.05;93422.28;2111775;28;20092;-80
2022/07/15 03:16:40;;;;;;;9.27;4.05;;;;;;;12.93;98.71;93419.91;2120682;27;20425;-79
2022/07/15 03:17:41;;;;;;;8.40;4.30;;;;;;;12.87;99.59;93417.00;2136280;27;20426;-79
2022/07/15 03:18:42;;;;;;;6.28;4.15;;;;;;;12.78;99.94;93422.22;2113566;28;20024;-79
2022/07/15 03:19:43;;;;;;;7.28;3.88;;;;;;;12.84;98.53;93421.28;2120472;27;20077;-79
2022/07/15 03:20:45;;;;;;;5.50;3.83;;;;;;;12.87;98.95;93424.31;2111402;28;20042;-78
2022/07/15 03:21:50;;;;;;;8.00;4.05;;;;;;;12.89;99.05;93420.00;2112230;27;20099;-79
2022/07/15 03:22:51;;;;;;;7.72;5.20;;;;;;;12.90;98.38;93421.50;2129536;27;20479;-79
2022/07/15 03:23:52;;;;;;;8.18;4.35;;;;;;;12.86;99.34;93418.16;2124178;27;20054;-79
2022/07/15 03:24:53;;;;;;;6.85;4.32;;;;;;;12.59;100.00;93423.81;2111362;28;20023;-79
2022/07/15 03:25:54;;;;;;;8.68;4.65;;;;;;;12.47;100.00;93425.25;2103559;28;20048;-79
2022/07/15 03:26:55;;;;;;;7.00;4.43;;;;;;;12.42;100.00;93422.31;2098289;28;20054;-79
2022/07/15 03:27:56;;;;;;;7.85;4.03;;;;;;;12.43;100.00;93423.84;2103049;28;20102;-79
2022/07/15 03:28:57;;;;;;;5.07;3.78;;;;;;;12.48;100.00;93426.00;2098052;28;20025;-79
2022/07/15 03:29:59;;;;;;;7.05;4.50;;;;;;;12.38;100.00;93427.78;2099213;28;20051;-79
2022/07/15 03:31:00;;;;;;;6.05;4.45;;;;;;;12.31;100.00;93434.06;2106597;28;20495;-80
2022/07/15 03:32:02;;;;;;;7.45;4.82;;;;;;;12.43;100.00;93426.53;2097894;28;20027;-79
2022/07/15 03:33:03;;;;;;;6.75;4.53;;;;;;;12.48;100.00;93432.13;2098003;28;20032;-79
2022/07/15 03:34:04;;;;;;;6.35;4.28;;;;;;;12.54;100.00;93427.00;2097239;28;20029;-79
2022/07/15 03:35:05;;;;;;;9.43;4.32;;;;;;;12.48;100.00;93426.00;2104594;28;20024;-79
2022/07/15 03:36:06;;;;;;;9.35;4.63;;;;;;;12.35;100.00;93425.94;2106228;28;20034;-79
2022/07/15 03:37:07;;;;;;;7.55;4.95;;;;;;;12.28;100.00;93429.53;2105800;28;20032;-79
2022/07/15 03:38:09;;;;;;;9.30;4.70;;;;;;;12.22;100.00;93435.81;2103617;28;20020;-79
2022/07/15 03:39:10;;;;;;;10.40;4.60;;;;;;;12.22;100.00;93436.56;2101998;28;20107;-79
2022/07/15 03:40:12;;;;;;;5.78;4.55;;;;;;;12.13;100.00;93438.31;2092163;28;20108;-79
2022/07/15 03:41:13;;;;;;;6.82;4.57;;;;;;;11.93;100.00;93436.44;2101134;28;20024;-79
2022/07/15 03:42:14;;;;;;;9.75;4.57;;;;;;;11.83;100.00;93437.41;2096498;28;20066;-79
2022/07/15 03:43:15;;;;;;;9.52;5.13;;;;;;;11.81;100.00;93440.50;2102057;28;20031;-79
2022/07/15 03:44:17;;;;;;;6.07;4.55;;;;;;;11.92;100.00;93440.28;2105387;28;20464;-79
2022/07/15 03:45:18;;;;;;;8.65;4.85;;;;;;;11.93;100.00;93441.78;2096466;28;20016;-79
2022/07/15 03:46:19;;;;;;;6.97;4.50;;;;;;;12.02;100.00;93444.66;2108539;28;20103;-79
2022/07/15 03:47:20;;;;;;;6.80;4.35;;;;;;;12.06;100.00;93439.97;2114351;27;20078;-79
2022/07/15 03:48:22;;;;;;;9.50;4.95;;;;;;;12.05;100.00;93449.19;2106072;28;20024;-79
2022/07/15 03:49:23;;;;;;;5.63;4.30;;;;;;;11.95;100.00;93444.06;2117537;27;20395;-79
2022/07/15 03:50:24;;;;;;;6.50;4.72;;;;;;;11.73;100.00;93441.81;2122221;27;20387;-79
2022/07/15 03:51:30;;;;;;;6.95;4.72;;;;;;;11.73;100.00;93443.75;2104022;28;20016;-79
2022/07/15 03:52:31;;;;;;;9.30;4.93;;;;;;;11.79;100.00;93448.19;2104289;27;20026;-79
2022/07/15 03:53:32;;;;;;;7.22;4.65;;;;;;;11.77;100.00;93450.53;2104830;28;20404;-79
2022/07/15 03:54:33;;;;;;;5.25;4.35;;;;;;;11.91;100.00;93443.38;2114174;28;20023;-79
2022/07/15 03:55:36;;;;;;;7.95;4.90;;;;;;;11.93;100.00;93446.38;2132309;27;20046;-79
2022/07/15 03:56:37;;;;;;;8.85;4.35;;;;;;;11.77;100.00;93447.84;2122996;27;20285;-79
2022/07/15 03:57:38;;;;;;;9.73;4.60;;;;;;;11.82;100.00;93451.97;2113472;28;20490;-79
2022/07/15 03:58:40;;;;;;;7.47;4.28;;;;;;;11.81;100.00;93447.78;2109663;28;20394;-79
2022/07/15 03:59:41;;;;;;;6.35;3.95;;;;;;;11.88;100.00;93447.63;2113741;28;20412;-79
2022/07/15 04:00:42;;;;;;;10.02;4.70;;;;;;;11.83;100.00;93445.47;2106007;28;20069;-79
2022/07/15 04:01:43;;;;;;;7.60;4.68;;;;;;;11.55;100.00;93444.84;2102461;28;20067;-79
2022/07/15 04:02:44;;;;;;;8.73;4.72;;;;;;;11.51;100.00;93446.84;2106307;28;20023;-79
2022/07/15 04:03:45;;;;;;;5.50;4.75;;;;;;;11.63;100.00;93444.69;2105830;28;20023;-79
2022/07/15 04:04:46;;;;;;;9.10;5.00;;;;;;;11.73;100.00;93435.69;2105744;28;20023;-79
2022/07/15 04:05:47;;;;;;;5.28;4.60;;;;;;;11.83;100.00;93442.78;2101157;28;20024;-79
2022/07/15 04:06:48;;;;;;;7.28;4.20;;;;;;;11.87;100.00;93443.47;2103121;28;20027;-79
2022/07/15 04:07:49;;;;;;;6.55;4.00;;;;;;;11.87;100.00;93446.13;2106226;28;20085;-79
2022/07/15 04:08:50;;;;;;;7.70;4.88;;;;;;;11.66;100.00;93430.47;2105880;28;20118;-80
2022/07/15 04:09:58;;;;;;;7.13;4.97;;;;;;;11.53;100.00;93441.06;2109015;28;20069;-79
2022/07/15 04:10:59;;;;;;;6.40;4.63;;;;;;;11.59;100.00;93434.06;2098752;28;20500;-79
2022/07/15 04:12:00;;;;;;;5.53;4.78;;;;;;;11.66;100.00;93441.94;2104362;28;20019;-79
2022/07/15 04:13:02;;;;;;;9.48;4.95;;;;;;;11.58;100.00;93438.66;2100671;28;20028;-79
2022/07/15 04:14:04;;;;;;;7.93;5.53;;;;;;;11.57;100.00;93439.06;2105501;28;20067;-79
2022/07/15 04:15:05;;;;;;;9.57;4.45;;;;;;;11.52;100.00;93439.56;2114626;27;20064;-79
2022/07/15 04:16:08;;;;;;;6.57;4.75;;;;;;;11.54;100.00;93437.97;2106031;28;20462;-79
2022/07/15 04:17:09;;;;;;;8.95;4.53;;;;;;;11.54;100.00;93440.66;2106316;27;20031;-79
2022/07/15 04:18:10;;;;;;;7.72;4.65;;;;;;;11.53;100.00;93436.47;2114392;28;20118;-79
2022/07/15 04:19:11;;;;;;;12.20;4.75;;;;;;;11.55;100.00;93439.50;2114293;28;20026;-79
2022/07/15 04:20:12;;;;;;;7.05;4.50;;;;;;;11.55;100.00;93431.47;2113734;28;20597;-79
2022/07/15 04:21:13;;;;;;;6.68;5.30;;;;;;;11.62;100.00;93427.13;2112483;27;20104;-79
2022/07/15 04:22:14;;;;;;;7.68;4.35;;;;;;;11.71;100.00;93425.38;2099820;28;20019;-79
2022/07/15 04:23:15;;;;;;;9.32;4.55;;;;;;;11.79;100.00;93437.47;2114235;28;20035;-79
2022/07/15 04:24:17;;;;;;;8.27;4.57;;;;;;;11.80;100.00;93432.84;2115516;27;20068;-79
2022/07/15 04:25:19;;;;;;;7.78;4.90;;;;;;;11.83;100.00;93434.75;2105134;28;20020;-79
2022/07/15 04:26:20;;;;;;;8.73;4.25;;;;;;;11.86;100.00;93436.59;2105218;28;20108;-80
2022/07/15 04:27:21;;;;;;;7.95;4.75;;;;;;;11.91;100.00;93443.38;2105809;28;20046;-78
2022/07/15 04:28:23;;;;;;;9.25;4.95;;;;;;;11.91;100.00;93435.34;2093354;28;20029;-79
2022/07/15 04:29:24;;;;;;;8.45;5.13;;;;;;;11.86;100.00;93444.63;2102838;28;20016;-79
2022/07/15 04:30:25;;;;;;;7.25;4.75;;;;;;;11.79;100.00;93439.38;2122557;27;20069;-80
2022/07/15 04:31:26;;;;;;;6.25;4.13;;;;;;;11.88;100.00;93436.94;2114078;28;20484;-79
2022/07/15 04:32:28;;;;;;;8.48;4.57;;;;;;;11.88;100.00;93441.53;2114184;27;20074;-79
2022/07/15 04:33:29;;;;;;;6.07;4.28;;;;;;;11.92;100.00;93442.22;2106681;28;20570;-79
2022/07/15 04:34:30;;;;;;;6.20;4.35;;;;;;;11.98;100.00;93432.50;2097243;28;20025;-80
2022/07/15 04:35:31;;;;;;;12.48;5.13;;;;;;;11.93;100.00;93435.69;2103238;28;20019;-79
2022/07/15 04:36:32;;;;;;;11.55;5.38;;;;;;;11.95;100.00;93439.47;2105496;28;20051;-80
2022/07/15 04:37:34;;;;;;;8.10;4.65;;;;;;;11.96;100.00;93434.84;2113352;28;20062;-80
2022/07/15 04:38:35;;;;;;;8.05;5.18;;;;;;;11.94;100.00;93429.91;2122103;27;20066;-79
2022/07/15 04:39:36;;;;;;;7.50;5.00;;;;;;;11.91;100.00;93438.78;2114187;28;20019;-79
2022/07/15 04:40:40;;;;;;;7.25;4.15;;;;;;;12.00;100.00;93438.22;2103798;28;20482;-79
2022/07/15 04:41:42;;;;;;;7.30;5.10;;;;;;;12.03;100.00;93435.47;2113415;27;20384;-79
2022/07/15 04:42:43;;;;;;;8.90;4.85;;;;;;;12.07;100.00;93435.34;2105437;28;20406;-80
2022/07/15 04:43:44;;;;;;;11.02;5.47;;;;;;;12.14;100.00;93437.88;2097062;28;20522;-80
2022/07/15 04:44:45;;;;;;;8.70;4.32;;;;;;;12.16;100.00;93432.09;2104515;28;20028;-80
2022/07/15 04:45:47;;;;;;;6.78;4.88;;;;;;;12.16;100.00;93435.56;2101761;28;20028;-79
2022/07/15 04:46:48;;;;;;;10.75;5.03;;;;;;;12.20;100.00;93441.56;2112736;27;20031;-80
2022/07/15 04:47:49;;;;;;;7.35;5.15;;;;;;;12.21;100.00;93442.34;2117212;27;20124;-80
2022/07/15 04:51:28;;;;;;;5.78;4.65;;;;;;;12.31;100.00;93438.66;2118571;27;20102;-79
2022/07/15 04:52:30;;;;;;;6.60;4.43;;;;;;;12.35;100.00;93439.34;2105615;28;20020;-79
2022/07/15 04:53:31;;;;;;;7.38;4.43;;;;;;;12.38;100.00;93433.16;2104783;28;20517;-80
2022/07/15 04:54:32;;;;;;;5.75;5.03;;;;;;;12.39;100.00;93437.31;2097402;28;20016;-80